»·PEaware :: N5939V KSFO-KCCR

N5939V :: KSFO-KCCR

FLIGHT INFORMATION

Flight Status: Arrived
Operator: Privately registered:
United States
More flights under this callsign
Pilot: Anonymous 30260 (30260)
Aircraft: SOCATA TBM-900
(TBM9)
More flights by this aircraft type
Origin: KSFO San Francisco Intl
United States
Destination: KCCR Buchanan
United States
More flights between these airports :: More routes between these airports
Route: +SFO4 CCR
File this flight plan on PilotEdge
Remarks:
Altitude:
(Current/Filed)
4,000ft
Speed:
(Current/Filed)
258kts
Departed: 26-Sep-20 06:10 PM
Arrived: 26-Sep-20 06:33 PM
Distance/Time
Traveled:
27nm/0:22
Distance/Time
To Go:
Arrived

Flight Plot

Page will automatically refresh every two minutes.

Flight plan parsing failed; only flown route is shown


Map Options




Map Legend


Flown Route
Filed Route
Departure Airport
Arrival Airport
Navaid (VOR, NDB)
Fix

Horizontal Profiles

Position Reports

Time Latitude Longitude Heading Altitude Ground
Speed
26-Sep-20 17:47 37.627831 -122.384437 237 11ft 0kts
26-Sep-20 17:48 37.627831 -122.384437 237 11ft 0kts
26-Sep-20 17:49 37.627831 -122.384437 237 11ft 0kts
26-Sep-20 17:50 37.627831 -122.384437 237 11ft 0kts
26-Sep-20 17:51 37.627831 -122.384437 237 11ft 0kts
26-Sep-20 17:52 37.627831 -122.384437 237 11ft 0kts
26-Sep-20 17:53 37.627831 -122.384437 237 11ft 0kts
26-Sep-20 17:54 37.627831 -122.384437 237 11ft 0kts
26-Sep-20 17:55 37.627831 -122.384437 237 11ft 0kts
26-Sep-20 17:56 37.627831 -122.384437 237 11ft 0kts
26-Sep-20 17:58 37.627831 -122.384437 237 11ft 0kts
26-Sep-20 17:59 37.627831 -122.384437 237 11ft 0kts
26-Sep-20 18:00 37.627831 -122.384437 237 11ft 0kts
26-Sep-20 18:01 37.627830 -122.384438 237 11ft 0kts
26-Sep-20 18:02 37.627831 -122.384437 237 11ft 0kts
26-Sep-20 18:03 37.627831 -122.384437 237 11ft 0kts
26-Sep-20 18:04 37.627831 -122.384437 237 11ft 0kts
26-Sep-20 18:05 37.627808 -122.384482 237 11ft 2kts
26-Sep-20 18:06 37.626364 -122.384061 118 14ft 15kts
26-Sep-20 18:07 37.624504 -122.379611 118 20ft 16kts
26-Sep-20 18:08 37.622570 -122.375344 178 15ft 11kts
26-Sep-20 18:09 37.621915 -122.377129 298 20ft 14kts
26-Sep-20 18:10 37.632804 -122.404465 293 775ft 126kts
26-Sep-20 18:11 37.649732 -122.448276 297 2498ft 146kts
26-Sep-20 18:12 37.669695 -122.497351 299 4031ft 168kts
26-Sep-20 18:13 37.713616 -122.503961 41 4032ft 231kts
26-Sep-20 18:13 37.751201 -122.452702 43 4009ft 242kts
26-Sep-20 18:14 37.797307 -122.389091 44 4155ft 241kts
26-Sep-20 18:16 37.843811 -122.313763 50 5025ft 235kts
26-Sep-20 18:16 37.878436 -122.255926 50 5018ft 247kts
26-Sep-20 18:17 37.920753 -122.185096 50 5004ft 250kts
26-Sep-20 18:19 37.969389 -122.103512 50 4999ft 250kts
26-Sep-20 18:19 37.998531 -122.054531 50 4999ft 250kts
26-Sep-20 18:20 38.039885 -121.984889 50 4989ft 232kts
26-Sep-20 18:21 38.076005 -121.920217 54 4984ft 222kts
26-Sep-20 18:22 38.113132 -121.857006 49 4998ft 223kts
26-Sep-20 18:23 38.151661 -121.795057 49 4993ft 226kts
26-Sep-20 18:24 38.190394 -121.809720 250 3794ft 196kts
26-Sep-20 18:25 38.158108 -121.859845 257 3033ft 188kts
26-Sep-20 18:26 38.151895 -121.923068 262 2536ft 179kts
26-Sep-20 18:27 38.136334 -121.979790 200 2130ft 183kts
26-Sep-20 18:28 38.086245 -122.004129 202 1200ft 197kts
26-Sep-20 18:29 38.041637 -122.028103 206 1056ft 138kts
26-Sep-20 18:30 38.012818 -122.044308 206 499ft 99kts
26-Sep-20 18:31 37.988994 -122.057512 201 20ft 59kts
26-Sep-20 18:32 37.985518 -122.060563 340 19ft 7kts
26-Sep-20 18:33 37.986628 -122.061195 24 19ft 0kts
26-Sep-20 18:34 37.986628 -122.061195 24 19ft 0kts
26-Sep-20 18:35 37.986628 -122.061195 24 19ft 0kts
26-Sep-20 18:36 37.986628 -122.061195 24 19ft 0kts
26-Sep-20 18:37 37.986628 -122.061195 24 19ft 0kts
26-Sep-20 18:38 37.986628 -122.061195 24 19ft 0kts

Navigation Log

Ident Type
Flight plan parsing failed, navigation log unavailable